Pioche, Nevada Weather observations

Data are for observation ending at time listed.
 Day   Time    Ave.   Ave.  Ave.  Vector   Max.   Stn.    Total    Solar   Ave.  
  of    of     Air    Rel.  Wind   Wind    Wind   Baro.  Precip.   Rad.    Soil  
Year   Day     Temp.  Hum.  Speed  Dir.    Gust   Pres.                    Temp. 
2016   (PST)    F      %     mph   deg.    mph     mb.     in.     W/m2     F   
------------------------------------------------------------------------------
 119   21:10   41.5    79    4.9   272      8.9   813.5    0.00       0    50.4
 119   21:20   41.3    79    5.9   278      9.7   813.7    0.00       0    50.4
 119   21:30   41.1    79    5.7   279      9.1   813.7    0.00       0    50.3
 119   21:40   41.0    78    5.8   275      9.9   813.7    0.00       0    50.3
 119   21:50   40.9    78    5.1   280      8.4   813.8    0.00       0    50.2
 119   22:00   40.8    77    5.9   280      9.2   813.8    0.00       0    50.2
 119   22:10   40.6    77    7.1   278     11.5   813.8    0.00       0    50.2
 119   22:20   40.3    78    7.1   281     10.9   813.8    0.00       0    50.1
 119   22:30   40.0    79    7.2   283     11.3   813.9    0.00       0    50.1
 119   22:40   39.7    80    6.5   278      9.1   814.0    0.00       0    50.1
 119   22:50   39.7    79    5.7   278      8.6   814.1    0.00       0    50.0
 119   23:00   39.8    79    6.3   276     11.9   814.2    0.00       0    50.0
 119   23:10   40.3    77    7.3   276     11.7   814.2    0.00       0    49.9
 119   23:20   40.7    76    7.4   279     12.5   814.2    0.00       0    49.9
 119   23:30   40.8    76    7.0   280     10.3   814.2    0.00       0    49.8
 119   23:40   41.0    76    7.2   280     11.0   814.2    0.00       0    49.8
 119   23:50   41.0    76    6.6   279      9.9   814.2    0.00       0    49.7
 120    0:00   41.0    76    6.2   274      9.9   814.1    0.00       0    49.7
 120    0:10   41.2    75    6.3   276     10.7   814.2    0.00       0    49.7
 120    0:20   41.2    75    5.3   273      8.5   814.1    0.00       0    49.6
 120    0:30   41.1    74    4.3   271      8.2   814.0    0.00       0    49.6
 120    0:40   41.0    76    3.7   270      6.7   813.9    0.00       0    49.6
 120    0:50   40.8    76    4.0   276      6.6   813.9    0.00       0    49.5
 120    1:00   40.5    77    3.9   280      7.2   813.9    0.00       0    49.5
 120    1:10   40.0    80    2.5   268      4.4   813.9    0.00       0    49.5
 120    1:20   39.7    80    3.2   271      6.4   813.9    0.00       0    49.4
 120    1:30   39.5    80    3.2   281      6.8   814.0    0.00       0    49.4
 120    1:40   39.3    81    2.2   271      3.5   814.1    0.00       0    49.4
 120    1:50   39.2    80    3.2   272      8.5   814.1    0.00       0    49.3
 120    2:00   39.6    76    4.9   288      7.8   814.2    0.00       0    49.3
 120    2:10   39.1    77    2.0   300      3.7   814.3    0.00       0    49.2
 120    2:20   38.3    79    2.1   288      3.4   814.5    0.00       0    49.2
 120    2:30   37.9    79    1.1   266      3.4   814.5    0.00       0    49.2
 120    2:40   37.7    80    2.1   265      6.0   814.6    0.00       0    49.1
 120    2:50   38.6    78    4.1   276      8.0   814.6    0.00       0    49.1
 120    3:00   39.0    77    5.9   275      9.6   814.6    0.00       0    49.0
 120    3:10   39.3    76    6.6   274     11.5   814.7    0.00       0    48.9
 120    3:20   39.7    74    6.8   282     12.1   814.6    0.00       0    48.9
 120    3:30   39.8    73    7.7   280     12.9   814.6    0.00       0    48.9
 120    3:40   39.6    73    6.9   280     10.2   814.7    0.00       0    48.8
 120    3:50   39.4    73    6.3   282     10.8   814.7    0.00       0    48.8
 120    4:00   39.1    74    4.8   277      9.5   814.7    0.00       0    48.8
 120    4:10   38.8    75    5.3   280      8.8   814.7    0.00       0    48.8
 120    4:20   38.8    74    5.1   289     10.3   814.6    0.00       0    48.8
 120    4:30   38.8    74    5.1   282      8.8   814.6    0.00       0    48.7
 120    4:40   38.7    74    5.2   276      8.1   814.5    0.00       1    48.7
 120    4:50   38.9    73    5.4   275      9.3   814.6    0.00       5    48.6
 120    5:00   39.5    71    3.9   282      8.5   814.7    0.00       9    48.6
 120    5:10   39.2    71    2.6   311      5.0   814.8    0.00      12    48.5
 120    5:20   38.3    75    3.1   292      6.4   815.0    0.00      15    48.5
 120    5:30   39.0    74    2.1   301      4.1   815.0    0.00      18    48.4
 120    5:40   39.4    73    2.4   282      5.8   815.1    0.00      21    48.4
 120    5:50   39.9    73    3.1   313      5.4   815.3    0.00      36    48.3
 120    6:00   40.2    74    4.4   308      7.9   815.3    0.00     206    48.3
 120    6:10   41.4    71    5.2   289      7.5   815.5    0.00     244    48.3
 120    6:20   42.7    68    4.7   290      7.9   815.7    0.00     282    48.2
 120    6:30   43.6    66    4.6   298      7.8   815.8    0.00     319    48.1
 120    6:40   44.4    65    4.7   310      9.1   815.8    0.00     357    48.1
 120    6:50   44.9    64    5.9   299     10.5   815.9    0.00     395    48.1
 120    7:00   45.1    64    6.7   299     10.7   816.1    0.00     432    48.1
 120    7:10   45.6    62    7.5   301     11.9   816.2    0.00     471    48.1
 120    7:20   45.7    60    7.2   317     12.5   816.3    0.00     316    48.1
 120    7:30   46.1    59    6.7   319     10.7   816.2    0.00     606    48.1
 120    7:40   47.6    56    8.2   313     14.2   816.2    0.00     653    48.1
 120    7:50   48.1    54    8.9   316     14.5   816.3    0.00     715    48.1
 120    8:00   48.1    55    8.8   325     13.6   816.4    0.00     690    48.1
 120    8:10   48.5    53    7.2   324     13.0   816.4    0.00     719    48.1
 120    8:20   49.6    52    3.6   328     11.3   816.3    0.00     717    48.1
 120    8:30   50.8    51    2.6   343     13.2   816.3    0.00     748    48.0
 120    8:40   51.2    51    2.9   327     10.4   816.3    0.00     789    48.1
 120    8:50   51.7    51    3.9   321      9.3   816.3    0.00     836    48.1
 120    9:00   52.1    51    3.0   334     10.1   816.2    0.00     839    48.1
 120    9:10   52.3    45    6.0   316     12.6   816.2    0.00     917    48.1
 120    9:20   52.6    42    7.6   318     13.4   816.2    0.00    1034    48.1
 120    9:30   52.3    44    6.7   301     11.5   816.2    0.00     522    48.2
 120    9:40   50.8    57    3.0   171      8.6   816.1    0.00     235    48.2
 120    9:50   50.6    57    5.0   158      9.6   816.0    0.00     782    48.2
 120   10:00   51.5    51    4.5   217      7.9   816.0    0.00     376    48.3
 120   10:10   51.9    45    1.8   311      7.7   816.0    0.00     250    48.4
 120   10:20   51.7    41    4.3   327      9.3   816.0    0.00     560    48.4
 120   10:30   54.3    36    3.7   286      7.7   815.9    0.00    1178    48.5
 120   10:40   54.2    40    4.3   197     10.2   815.8    0.00     658    48.5
 120   10:50   54.1    32    3.6   327      9.0   815.8    0.00     788    48.6
 120   11:00   53.8    34    6.5   285     11.2   815.7    0.00     419    48.7
 120   11:10   52.2    41    7.9   289     15.4   815.7    0.00     388    48.8
 120   11:20   49.3    54   12.4   307     21.3   815.7    0.00     271    48.9
 120   11:30   47.2    63    9.7   323     17.0   815.7    0.00     329    49.1
 120   11:40   48.3    58    7.3   328     13.4   815.7    0.00     571    49.2
 120   11:50   49.9    48    3.3   331      7.6   815.7    0.00     417    49.2
 120   12:00   49.4    53    4.7   312     11.5   815.7    0.00     211    49.3
 120   12:10   48.2    58    1.3   340      6.1   815.5    0.00     289    49.5
 120   12:20   49.8    50    1.9   324      5.5   815.4    0.00     662    49.6
 120   12:30   52.5    42    1.0    83      3.2   815.2    0.00     698    49.6
 120   12:40   53.3    38    1.3   103      3.6   815.0    0.00    1003    49.7
 120   12:50   54.4    39    2.2   318      4.9   814.9    0.00     617    49.7
 120   13:00   53.8    42    3.9   300      7.3   814.8    0.00     433    49.8
 120   13:10   53.5    41    4.3   325      8.0   814.7    0.00     412    49.9
 120   13:20   53.5    42    6.9   309     18.5   814.7    0.00     287    50.0
 120   13:30   50.9    55   12.5   311     18.6   814.7    0.00     490    50.1
 120   13:40   50.7    54   10.6   325     16.7   814.7    0.00     317    50.2
 120   13:50   51.1    54    7.4   313     14.5   814.7    0.00     509    50.3
 120   14:00   51.5    46   12.3   285     20.8   814.7    0.00     421    50.4
 120   14:10   50.7    48    9.0   297     14.6   814.6    0.00     258    50.5
 120   14:20   50.8    46    7.4   302     14.6   814.4    0.00     260    50.6
 120   14:30   51.2    43    6.5   299     11.0   814.3    0.00     207    50.7
 120   14:40   52.2    41    4.7   295     10.0   814.3    0.00     260    50.8
 120   14:50   52.8    39    6.0   287      9.9   814.2    0.00     280    50.9
 120   15:00   52.2    44    5.4   313     12.1   814.2    0.00     279    51.0
 120   15:10   51.9    48    3.8   328      8.6   814.1    0.00     337    51.0
 120   15:20   52.4    45    2.3   329      6.1   814.0    0.00     314    51.1
 120   15:30   52.9    42    1.4    68      4.5   813.8    0.00     238    51.1
 120   15:40   52.8    40    0.9    96      2.5   813.8    0.00     226    51.2
 120   15:50   52.6    44    6.5   276     15.6   813.9    0.00     146    51.3
 120   16:00   51.0    48    6.9   282     14.8   813.7    0.00     147    51.3
 120   16:10   51.2    46    3.9   261      9.1   813.7    0.00     144    51.4
 120   16:20   51.4    47    3.5   202      8.5   813.7    0.00     181    51.4
 120   16:30   51.0    44    5.3   157     10.2   813.6    0.00     274    51.5
 120   16:40   51.4    44    2.9   164      6.4   813.6    0.00     236    51.5
 120   16:50   52.0    50    6.5   325     12.9   813.5    0.00     271    51.6
 120   17:00   51.9    48    4.0   335      9.9   813.5    0.00     309    51.6
 120   17:10   51.5    49    4.1   330      9.4   813.6    0.00     116    51.6
 120   17:20   50.2    51    2.0   341      7.0   813.6    0.00     116    51.7
 120   17:30   51.2    50    0.7    61      3.5   813.5    0.00     136    51.7
 120   17:40   50.1    52    1.1   329      3.2   813.4    0.00      95    51.7
 120   17:50   49.4    55    3.0   301      5.1   813.4    0.00      29    51.8
 120   18:00   48.4    58    3.0   282      4.7   813.4    0.00      14    51.9
 120   18:10   47.6    62    1.0   257      2.6   813.4    0.00       8    51.9
 120   18:20   46.4    63    0.9   220      2.9   813.3    0.00       5    51.9
 120   18:30   45.4    66    2.4   215      3.9   813.4    0.00       1    51.9
 120   18:40   45.7    65    1.0   230      2.0   813.3    0.00       0    52.0
 120   18:50   46.2    66    0.8   231      2.0   813.3    0.00       0    52.0
 120   19:00   46.3    65    1.0   175      2.5   813.2    0.00       0    52.0
 120   19:10   46.7    62    0.6   172      2.0   813.2    0.00       0    52.0
 120   19:20   46.6    65    1.0   158      2.3   813.4    0.00       0    52.1
 120   19:30   46.5    66    1.0   143      2.0   813.6    0.00       0    52.1
 120   19:40   46.2    67    7.2   266     22.4   814.0    0.01       0    52.1
 120   19:50   40.9    82   10.0   264     18.4   814.4    0.04       0    52.1
 120   20:00   38.8    88    9.9   273     18.0   814.7    0.04       0    52.1
 120   20:10   39.0    90    8.2   271     13.5   814.7    0.02       0    52.1
 120   20:20   39.4    90    7.7   273     14.2   814.9    0.03       0    52.1
 120   20:30   39.6    90    6.7   286     13.2   814.8    0.03       0    52.0
 120   20:40   39.6    87    3.6   326     10.7   814.6    0.01       0    52.0
 120   20:50   39.3    89    3.1   348      7.2   814.3    0.01       0    51.9
 120   21:00   38.8    91    2.9   313      6.4   814.3    0.00       0    51.9

Return to Pioche, Nevada graphs page.


Western Regional Climate Center,wrcc@dri.edu